sensor_id;sensor_type;location;lat;lon;timestamp;P1;durP1;ratioP1;P2;durP2;ratioP2
79452;SDS011;68899;52.116;5.404;2023-11-19T00:00:07;14.68;;;5.00;;
79452;SDS011;68899;52.116;5.404;2023-11-19T00:02:40;10.25;;;4.80;;
79452;SDS011;68899;52.116;5.404;2023-11-19T00:05:09;12.63;;;4.32;;
79452;SDS011;68899;52.116;5.404;2023-11-19T00:07:37;11.35;;;4.65;;
79452;SDS011;68899;52.116;5.404;2023-11-19T00:10:10;10.38;;;4.57;;
79452;SDS011;68899;52.116;5.404;2023-11-19T00:12:39;9.25;;;4.22;;
79452;SDS011;68899;52.116;5.404;2023-11-19T00:15:07;13.65;;;4.60;;
79452;SDS011;68899;52.116;5.404;2023-11-19T00:17:38;14.00;;;3.95;;
79452;SDS011;68899;52.116;5.404;2023-11-19T00:20:12;17.65;;;4.60;;
79452;SDS011;68899;52.116;5.404;2023-11-19T00:22:40;11.40;;;3.78;;
79452;SDS011;68899;52.116;5.404;2023-11-19T00:25:13;14.70;;;4.03;;
79452;SDS011;68899;52.116;5.404;2023-11-19T00:27:40;11.05;;;4.00;;
79452;SDS011;68899;52.116;5.404;2023-11-19T00:30:07;14.18;;;4.53;;
79452;SDS011;68899;52.116;5.404;2023-11-19T00:32:36;13.80;;;4.03;;
79452;SDS011;68899;52.116;5.404;2023-11-19T00:35:05;14.32;;;3.78;;
79452;SDS011;68899;52.116;5.404;2023-11-19T00:37:33;17.80;;;3.95;;
79452;SDS011;68899;52.116;5.404;2023-11-19T00:40:00;12.95;;;3.92;;
79452;SDS011;68899;52.116;5.404;2023-11-19T00:42:27;9.98;;;3.20;;
79452;SDS011;68899;52.116;5.404;2023-11-19T00:44:53;12.63;;;3.20;;
79452;SDS011;68899;52.116;5.404;2023-11-19T00:47:21;14.15;;;3.15;;
79452;SDS011;68899;52.116;5.404;2023-11-19T00:49:48;13.60;;;4.05;;
79452;SDS011;68899;52.116;5.404;2023-11-19T00:52:17;11.88;;;2.42;;
79452;SDS011;68899;52.116;5.404;2023-11-19T00:54:43;12.90;;;3.90;;
79452;SDS011;68899;52.116;5.404;2023-11-19T00:57:10;15.45;;;3.10;;
79452;SDS011;68899;52.116;5.404;2023-11-19T00:59:36;12.32;;;2.97;;
79452;SDS011;68899;52.116;5.404;2023-11-19T01:02:03;15.98;;;3.92;;
79452;SDS011;68899;52.116;5.404;2023-11-19T01:04:35;17.20;;;3.70;;
79452;SDS011;68899;52.116;5.404;2023-11-19T01:07:02;12.73;;;3.53;;
79452;SDS011;68899;52.116;5.404;2023-11-19T01:09:32;18.27;;;3.10;;
79452;SDS011;68899;52.116;5.404;2023-11-19T01:12:01;15.30;;;3.33;;
79452;SDS011;68899;52.116;5.404;2023-11-19T01:14:28;15.43;;;4.28;;
79452;SDS011;68899;52.116;5.404;2023-11-19T01:16:55;18.40;;;3.72;;
79452;SDS011;68899;52.116;5.404;2023-11-19T01:19:22;14.07;;;3.13;;
79452;SDS011;68899;52.116;5.404;2023-11-19T01:21:49;15.43;;;2.88;;
79452;SDS011;68899;52.116;5.404;2023-11-19T01:24:16;14.55;;;3.10;;
79452;SDS011;68899;52.116;5.404;2023-11-19T01:26:43;19.08;;;3.42;;
79452;SDS011;68899;52.116;5.404;2023-11-19T01:29:13;15.25;;;3.60;;
79452;SDS011;68899;52.116;5.404;2023-11-19T01:31:41;18.48;;;3.47;;
79452;SDS011;68899;52.116;5.404;2023-11-19T01:34:08;15.55;;;3.63;;
79452;SDS011;68899;52.116;5.404;2023-11-19T01:36:34;23.90;;;4.28;;
79452;SDS011;68899;52.116;5.404;2023-11-19T01:39:01;17.55;;;4.13;;
79452;SDS011;68899;52.116;5.404;2023-11-19T01:41:28;14.95;;;3.83;;
79452;SDS011;68899;52.116;5.404;2023-11-19T01:43:54;21.75;;;3.35;;
79452;SDS011;68899;52.116;5.404;2023-11-19T01:46:20;25.73;;;4.50;;
79452;SDS011;68899;52.116;5.404;2023-11-19T01:48:47;17.27;;;3.25;;
79452;SDS011;68899;52.116;5.404;2023-11-19T01:51:14;20.38;;;3.33;;
79452;SDS011;68899;52.116;5.404;2023-11-19T01:53:42;24.25;;;3.63;;
79452;SDS011;68899;52.116;5.404;2023-11-19T01:56:10;19.17;;;3.63;;
79452;SDS011;68899;52.116;5.404;2023-11-19T01:58:39;20.17;;;4.07;;
79452;SDS011;68899;52.116;5.404;2023-11-19T02:01:08;17.38;;;3.15;;
79452;SDS011;68899;52.116;5.404;2023-11-19T02:03:35;18.67;;;3.30;;
79452;SDS011;68899;52.116;5.404;2023-11-19T02:06:02;22.33;;;3.63;;
79452;SDS011;68899;52.116;5.404;2023-11-19T02:08:29;19.25;;;3.10;;
79452;SDS011;68899;52.116;5.404;2023-11-19T02:10:56;23.85;;;4.63;;
79452;SDS011;68899;52.116;5.404;2023-11-19T02:13:24;21.05;;;4.22;;
79452;SDS011;68899;52.116;5.404;2023-11-19T02:15:52;20.85;;;3.83;;
79452;SDS011;68899;52.116;5.404;2023-11-19T02:18:22;19.45;;;3.95;;
79452;SDS011;68899;52.116;5.404;2023-11-19T02:20:50;17.45;;;3.40;;
79452;SDS011;68899;52.116;5.404;2023-11-19T02:23:17;17.25;;;3.92;;
79452;SDS011;68899;52.116;5.404;2023-11-19T02:25:47;19.63;;;4.10;;
79452;SDS011;68899;52.116;5.404;2023-11-19T02:28:32;22.98;;;3.85;;
79452;SDS011;68899;52.116;5.404;2023-11-19T02:30:59;23.30;;;5.22;;
79452;SDS011;68899;52.116;5.404;2023-11-19T02:33:26;20.75;;;3.55;;
79452;SDS011;68899;52.116;5.404;2023-11-19T02:35:52;18.95;;;4.93;;
79452;SDS011;68899;52.116;5.404;2023-11-19T02:38:19;20.33;;;3.28;;
79452;SDS011;68899;52.116;5.404;2023-11-19T02:40:48;20.70;;;3.30;;
79452;SDS011;68899;52.116;5.404;2023-11-19T02:43:15;26.75;;;4.20;;
79452;SDS011;68899;52.116;5.404;2023-11-19T02:45:42;21.08;;;3.63;;
79452;SDS011;68899;52.116;5.404;2023-11-19T02:48:12;21.27;;;3.78;;
79452;SDS011;68899;52.116;5.404;2023-11-19T02:50:38;28.00;;;4.63;;
79452;SDS011;68899;52.116;5.404;2023-11-19T02:53:05;24.80;;;5.57;;
79452;SDS011;68899;52.116;5.404;2023-11-19T02:55:32;20.88;;;3.55;;
79452;SDS011;68899;52.116;5.404;2023-11-19T02:58:04;22.20;;;3.95;;
79452;SDS011;68899;52.116;5.404;2023-11-19T03:00:39;18.55;;;3.95;;
79452;SDS011;68899;52.116;5.404;2023-11-19T03:03:13;23.08;;;4.28;;
79452;SDS011;68899;52.116;5.404;2023-11-19T03:05:52;20.58;;;3.65;;
79452;SDS011;68899;52.116;5.404;2023-11-19T03:08:19;19.30;;;4.60;;
79452;SDS011;68899;52.116;5.404;2023-11-19T03:10:49;21.50;;;4.50;;
79452;SDS011;68899;52.116;5.404;2023-11-19T03:13:15;22.25;;;4.30;;
79452;SDS011;68899;52.116;5.404;2023-11-19T03:15:45;29.05;;;5.60;;
79452;SDS011;68899;52.116;5.404;2023-11-19T03:18:12;26.80;;;4.85;;
79452;SDS011;68899;52.116;5.404;2023-11-19T03:20:38;20.95;;;3.67;;
79452;SDS011;68899;52.116;5.404;2023-11-19T03:23:05;19.25;;;4.43;;
79452;SDS011;68899;52.116;5.404;2023-11-19T03:25:32;30.92;;;4.72;;
79452;SDS011;68899;52.116;5.404;2023-11-19T03:28:03;26.63;;;5.63;;
79452;SDS011;68899;52.116;5.404;2023-11-19T03:30:30;23.15;;;4.07;;
79452;SDS011;68899;52.116;5.404;2023-11-19T03:33:00;30.38;;;4.68;;
79452;SDS011;68899;52.116;5.404;2023-11-19T03:35:28;20.35;;;4.38;;
79452;SDS011;68899;52.116;5.404;2023-11-19T03:37:54;18.27;;;3.28;;
79452;SDS011;68899;52.116;5.404;2023-11-19T03:40:21;23.98;;;4.40;;
79452;SDS011;68899;52.116;5.404;2023-11-19T03:42:47;27.40;;;4.15;;
79452;SDS011;68899;52.116;5.404;2023-11-19T03:45:14;22.00;;;3.20;;
79452;SDS011;68899;52.116;5.404;2023-11-19T03:47:42;19.95;;;3.95;;
79452;SDS011;68899;52.116;5.404;2023-11-19T03:50:09;20.00;;;4.22;;
79452;SDS011;68899;52.116;5.404;2023-11-19T03:52:35;21.23;;;3.67;;
79452;SDS011;68899;52.116;5.404;2023-11-19T03:55:09;20.50;;;4.13;;
79452;SDS011;68899;52.116;5.404;2023-11-19T03:57:36;23.17;;;4.25;;
79452;SDS011;68899;52.116;5.404;2023-11-19T04:00:03;26.40;;;4.35;;
79452;SDS011;68899;52.116;5.404;2023-11-19T04:02:35;22.88;;;4.15;;
79452;SDS011;68899;52.116;5.404;2023-11-19T04:05:02;23.60;;;4.28;;
79452;SDS011;68899;52.116;5.404;2023-11-19T04:07:30;24.75;;;4.45;;
79452;SDS011;68899;52.116;5.404;2023-11-19T04:09:58;27.75;;;3.88;;
79452;SDS011;68899;52.116;5.404;2023-11-19T04:12:25;25.70;;;4.10;;
79452;SDS011;68899;52.116;5.404;2023-11-19T04:14:52;29.70;;;4.55;;
79452;SDS011;68899;52.116;5.404;2023-11-19T04:17:21;27.10;;;4.85;;
79452;SDS011;68899;52.116;5.404;2023-11-19T04:19:49;27.58;;;3.72;;
79452;SDS011;68899;52.116;5.404;2023-11-19T04:22:16;20.20;;;4.25;;
79452;SDS011;68899;52.116;5.404;2023-11-19T04:24:42;24.00;;;3.58;;
79452;SDS011;68899;52.116;5.404;2023-11-19T04:27:11;24.17;;;4.20;;
79452;SDS011;68899;52.116;5.404;2023-11-19T04:29:38;24.33;;;5.20;;
79452;SDS011;68899;52.116;5.404;2023-11-19T04:32:04;23.77;;;3.78;;
79452;SDS011;68899;52.116;5.404;2023-11-19T04:34:31;28.63;;;4.18;;
79452;SDS011;68899;52.116;5.404;2023-11-19T04:36:58;25.98;;;4.53;;
79452;SDS011;68899;52.116;5.404;2023-11-19T04:39:38;24.80;;;4.32;;
79452;SDS011;68899;52.116;5.404;2023-11-19T04:42:05;30.63;;;4.50;;
79452;SDS011;68899;52.116;5.404;2023-11-19T04:44:32;28.63;;;4.15;;
79452;SDS011;68899;52.116;5.404;2023-11-19T04:46:59;24.33;;;3.60;;
79452;SDS011;68899;52.116;5.404;2023-11-19T04:49:25;25.67;;;4.93;;
79452;SDS011;68899;52.116;5.404;2023-11-19T04:51:54;22.50;;;4.28;;
79452;SDS011;68899;52.116;5.404;2023-11-19T04:54:20;27.80;;;4.53;;
79452;SDS011;68899;52.116;5.404;2023-11-19T04:56:47;23.73;;;5.00;;
79452;SDS011;68899;52.116;5.404;2023-11-19T04:59:14;26.80;;;4.90;;
79452;SDS011;68899;52.116;5.404;2023-11-19T05:01:40;21.35;;;3.45;;
79452;SDS011;68899;52.116;5.404;2023-11-19T05:04:07;22.67;;;5.65;;
79452;SDS011;68899;52.116;5.404;2023-11-19T05:06:34;25.15;;;4.57;;
79452;SDS011;68899;52.116;5.404;2023-11-19T05:09:01;24.75;;;4.22;;
79452;SDS011;68899;52.116;5.404;2023-11-19T05:11:32;26.40;;;3.88;;
79452;SDS011;68899;52.116;5.404;2023-11-19T05:13:59;25.20;;;4.97;;
79452;SDS011;68899;52.116;5.404;2023-11-19T05:16:26;25.65;;;4.85;;
79452;SDS011;68899;52.116;5.404;2023-11-19T05:18:53;27.67;;;5.50;;
79452;SDS011;68899;52.116;5.404;2023-11-19T05:21:19;25.40;;;4.65;;
79452;SDS011;68899;52.116;5.404;2023-11-19T05:23:46;33.53;;;4.35;;
79452;SDS011;68899;52.116;5.404;2023-11-19T05:26:20;25.55;;;5.60;;
79452;SDS011;68899;52.116;5.404;2023-11-19T05:28:47;23.67;;;3.22;;
79452;SDS011;68899;52.116;5.404;2023-11-19T05:31:15;24.05;;;4.15;;
79452;SDS011;68899;52.116;5.404;2023-11-19T05:33:43;25.98;;;4.18;;
79452;SDS011;68899;52.116;5.404;2023-11-19T05:36:10;24.73;;;3.38;;
79452;SDS011;68899;52.116;5.404;2023-11-19T05:38:39;25.13;;;4.47;;
79452;SDS011;68899;52.116;5.404;2023-11-19T05:41:05;22.10;;;4.60;;
79452;SDS011;68899;52.116;5.404;2023-11-19T05:43:32;17.08;;;4.32;;
79452;SDS011;68899;52.116;5.404;2023-11-19T05:45:59;23.90;;;3.78;;
79452;SDS011;68899;52.116;5.404;2023-11-19T05:48:25;23.85;;;3.80;;
79452;SDS011;68899;52.116;5.404;2023-11-19T05:50:53;24.08;;;4.65;;
79452;SDS011;68899;52.116;5.404;2023-11-19T05:53:21;24.77;;;4.53;;
79452;SDS011;68899;52.116;5.404;2023-11-19T05:55:47;22.75;;;4.35;;
79452;SDS011;68899;52.116;5.404;2023-11-19T05:58:25;25.67;;;4.28;;
79452;SDS011;68899;52.116;5.404;2023-11-19T06:00:52;28.95;;;4.93;;
79452;SDS011;68899;52.116;5.404;2023-11-19T06:03:19;26.17;;;5.63;;
79452;SDS011;68899;52.116;5.404;2023-11-19T06:05:45;23.92;;;4.07;;
79452;SDS011;68899;52.116;5.404;2023-11-19T06:08:12;27.23;;;4.45;;
79452;SDS011;68899;52.116;5.404;2023-11-19T06:10:40;25.95;;;5.30;;
79452;SDS011;68899;52.116;5.404;2023-11-19T06:13:06;20.45;;;4.22;;
79452;SDS011;68899;52.116;5.404;2023-11-19T06:15:36;26.65;;;4.40;;
79452;SDS011;68899;52.116;5.404;2023-11-19T06:18:02;27.48;;;5.47;;
79452;SDS011;68899;52.116;5.404;2023-11-19T06:20:30;28.88;;;4.57;;
79452;SDS011;68899;52.116;5.404;2023-11-19T06:23:08;25.73;;;4.88;;
79452;SDS011;68899;52.116;5.404;2023-11-19T06:25:35;33.50;;;4.43;;
79452;SDS011;68899;52.116;5.404;2023-11-19T06:28:02;27.80;;;4.57;;
79452;SDS011;68899;52.116;5.404;2023-11-19T06:30:29;25.75;;;5.18;;
79452;SDS011;68899;52.116;5.404;2023-11-19T06:32:57;20.27;;;3.88;;
79452;SDS011;68899;52.116;5.404;2023-11-19T06:35:24;22.25;;;3.63;;
79452;SDS011;68899;52.116;5.404;2023-11-19T06:37:51;26.42;;;4.18;;
79452;SDS011;68899;52.116;5.404;2023-11-19T06:40:17;22.25;;;4.32;;
79452;SDS011;68899;52.116;5.404;2023-11-19T06:42:44;25.48;;;3.67;;
79452;SDS011;68899;52.116;5.404;2023-11-19T06:45:10;25.15;;;4.22;;
79452;SDS011;68899;52.116;5.404;2023-11-19T06:47:37;24.88;;;5.72;;
79452;SDS011;68899;52.116;5.404;2023-11-19T06:50:03;32.75;;;4.63;;
79452;SDS011;68899;52.116;5.404;2023-11-19T06:52:31;18.98;;;3.42;;
79452;SDS011;68899;52.116;5.404;2023-11-19T06:54:58;33.33;;;4.47;;
79452;SDS011;68899;52.116;5.404;2023-11-19T06:57:28;25.85;;;3.88;;
79452;SDS011;68899;52.116;5.404;2023-11-19T06:59:55;26.45;;;5.68;;
79452;SDS011;68899;52.116;5.404;2023-11-19T07:02:22;25.60;;;5.25;;
79452;SDS011;68899;52.116;5.404;2023-11-19T07:04:51;24.05;;;3.95;;
79452;SDS011;68899;52.116;5.404;2023-11-19T07:07:18;28.50;;;4.38;;
79452;SDS011;68899;52.116;5.404;2023-11-19T07:09:44;24.48;;;3.63;;
79452;SDS011;68899;52.116;5.404;2023-11-19T07:12:11;24.45;;;4.63;;
79452;SDS011;68899;52.116;5.404;2023-11-19T07:14:39;18.77;;;3.67;;
79452;SDS011;68899;52.116;5.404;2023-11-19T07:17:06;22.27;;;3.72;;
79452;SDS011;68899;52.116;5.404;2023-11-19T07:19:32;24.55;;;3.90;;
79452;SDS011;68899;52.116;5.404;2023-11-19T07:22:01;24.13;;;4.10;;
79452;SDS011;68899;52.116;5.404;2023-11-19T07:24:28;21.58;;;3.38;;
79452;SDS011;68899;52.116;5.404;2023-11-19T07:26:54;27.65;;;3.67;;
79452;SDS011;68899;52.116;5.404;2023-11-19T07:29:21;23.35;;;5.07;;
79452;SDS011;68899;52.116;5.404;2023-11-19T07:31:50;26.25;;;4.63;;
79452;SDS011;68899;52.116;5.404;2023-11-19T07:34:17;21.92;;;3.92;;
79452;SDS011;68899;52.116;5.404;2023-11-19T07:36:44;28.17;;;4.10;;
79452;SDS011;68899;52.116;5.404;2023-11-19T07:39:10;31.67;;;4.18;;
79452;SDS011;68899;52.116;5.404;2023-11-19T07:41:37;26.10;;;5.07;;
79452;SDS011;68899;52.116;5.404;2023-11-19T07:44:03;21.92;;;3.15;;
79452;SDS011;68899;52.116;5.404;2023-11-19T07:46:30;26.60;;;4.40;;
79452;SDS011;68899;52.116;5.404;2023-11-19T07:48:58;22.85;;;4.88;;
79452;SDS011;68899;52.116;5.404;2023-11-19T07:51:24;19.27;;;4.80;;
79452;SDS011;68899;52.116;5.404;2023-11-19T07:53:51;20.30;;;4.05;;
79452;SDS011;68899;52.116;5.404;2023-11-19T07:56:17;20.40;;;4.72;;
79452;SDS011;68899;52.116;5.404;2023-11-19T07:58:44;29.25;;;3.90;;
79452;SDS011;68899;52.116;5.404;2023-11-19T08:01:10;23.92;;;3.58;;
79452;SDS011;68899;52.116;5.404;2023-11-19T08:03:37;28.48;;;4.10;;
79452;SDS011;68899;52.116;5.404;2023-11-19T08:06:03;28.30;;;4.53;;
79452;SDS011;68899;52.116;5.404;2023-11-19T08:08:30;20.35;;;4.38;;
79452;SDS011;68899;52.116;5.404;2023-11-19T08:10:59;25.42;;;4.18;;
79452;SDS011;68899;52.116;5.404;2023-11-19T08:13:25;28.65;;;4.53;;
79452;SDS011;68899;52.116;5.404;2023-11-19T08:15:51;26.73;;;4.95;;
79452;SDS011;68899;52.116;5.404;2023-11-19T08:18:18;21.02;;;3.22;;
79452;SDS011;68899;52.116;5.404;2023-11-19T08:20:45;19.10;;;3.22;;
79452;SDS011;68899;52.116;5.404;2023-11-19T08:23:13;20.27;;;4.32;;
79452;SDS011;68899;52.116;5.404;2023-11-19T08:25:40;21.33;;;4.30;;
79452;SDS011;68899;52.116;5.404;2023-11-19T08:28:06;25.02;;;3.00;;
79452;SDS011;68899;52.116;5.404;2023-11-19T08:30:33;28.08;;;5.55;;
79452;SDS011;68899;52.116;5.404;2023-11-19T08:32:59;22.50;;;3.42;;
79452;SDS011;68899;52.116;5.404;2023-11-19T08:35:29;24.80;;;4.93;;
79452;SDS011;68899;52.116;5.404;2023-11-19T08:37:56;23.27;;;4.32;;
79452;SDS011;68899;52.116;5.404;2023-11-19T08:40:23;27.83;;;4.20;;
79452;SDS011;68899;52.116;5.404;2023-11-19T08:42:51;19.08;;;3.45;;
79452;SDS011;68899;52.116;5.404;2023-11-19T08:45:17;26.92;;;3.92;;
79452;SDS011;68899;52.116;5.404;2023-11-19T08:47:44;20.60;;;3.72;;
79452;SDS011;68899;52.116;5.404;2023-11-19T08:50:11;25.15;;;4.10;;
79452;SDS011;68899;52.116;5.404;2023-11-19T08:52:38;31.92;;;4.60;;
79452;SDS011;68899;52.116;5.404;2023-11-19T08:55:04;19.80;;;4.22;;
79452;SDS011;68899;52.116;5.404;2023-11-19T08:57:31;20.85;;;4.22;;
79452;SDS011;68899;52.116;5.404;2023-11-19T08:59:59;27.50;;;4.63;;
79452;SDS011;68899;52.116;5.404;2023-11-19T09:02:25;19.40;;;3.83;;
79452;SDS011;68899;52.116;5.404;2023-11-19T09:04:53;21.42;;;3.78;;
79452;SDS011;68899;52.116;5.404;2023-11-19T09:07:20;33.17;;;4.22;;
79452;SDS011;68899;52.116;5.404;2023-11-19T09:09:47;20.45;;;4.35;;
79452;SDS011;68899;52.116;5.404;2023-11-19T09:12:14;23.50;;;4.53;;
79452;SDS011;68899;52.116;5.404;2023-11-19T09:14:40;24.90;;;5.47;;
79452;SDS011;68899;52.116;5.404;2023-11-19T09:17:08;20.92;;;3.95;;
79452;SDS011;68899;52.116;5.404;2023-11-19T09:19:36;21.52;;;3.90;;
79452;SDS011;68899;52.116;5.404;2023-11-19T09:22:02;20.55;;;3.72;;
79452;SDS011;68899;52.116;5.404;2023-11-19T09:24:29;17.35;;;3.47;;
79452;SDS011;68899;52.116;5.404;2023-11-19T09:26:55;28.60;;;3.90;;
79452;SDS011;68899;52.116;5.404;2023-11-19T09:29:22;25.48;;;3.90;;
79452;SDS011;68899;52.116;5.404;2023-11-19T09:31:49;26.70;;;4.43;;
79452;SDS011;68899;52.116;5.404;2023-11-19T09:34:16;23.85;;;4.88;;
79452;SDS011;68899;52.116;5.404;2023-11-19T09:36:42;23.20;;;3.47;;
79452;SDS011;68899;52.116;5.404;2023-11-19T09:39:11;23.63;;;4.30;;
79452;SDS011;68899;52.116;5.404;2023-11-19T09:41:39;21.05;;;4.25;;
79452;SDS011;68899;52.116;5.404;2023-11-19T09:44:05;23.27;;;4.78;;
79452;SDS011;68899;52.116;5.404;2023-11-19T09:46:32;18.88;;;3.35;;
79452;SDS011;68899;52.116;5.404;2023-11-19T09:48:59;23.83;;;2.90;;
79452;SDS011;68899;52.116;5.404;2023-11-19T09:51:28;19.27;;;3.13;;
79452;SDS011;68899;52.116;5.404;2023-11-19T09:53:55;23.00;;;5.05;;
79452;SDS011;68899;52.116;5.404;2023-11-19T09:56:22;23.80;;;4.68;;
79452;SDS011;68899;52.116;5.404;2023-11-19T09:58:49;18.67;;;3.72;;
79452;SDS011;68899;52.116;5.404;2023-11-19T10:01:16;23.95;;;3.03;;
79452;SDS011;68899;52.116;5.404;2023-11-19T10:03:54;18.45;;;4.03;;
79452;SDS011;68899;52.116;5.404;2023-11-19T10:06:22;26.77;;;4.00;;
79452;SDS011;68899;52.116;5.404;2023-11-19T10:08:51;20.50;;;4.32;;
79452;SDS011;68899;52.116;5.404;2023-11-19T10:11:17;21.15;;;3.15;;
79452;SDS011;68899;52.116;5.404;2023-11-19T10:13:44;24.75;;;5.38;;
79452;SDS011;68899;52.116;5.404;2023-11-19T10:16:14;21.48;;;3.45;;
79452;SDS011;68899;52.116;5.404;2023-11-19T10:18:48;15.75;;;3.83;;
79452;SDS011;68899;52.116;5.404;2023-11-19T10:21:17;23.25;;;3.83;;
79452;SDS011;68899;52.116;5.404;2023-11-19T10:23:51;28.45;;;5.63;;
79452;SDS011;68899;52.116;5.404;2023-11-19T10:26:19;23.38;;;3.42;;
79452;SDS011;68899;52.116;5.404;2023-11-19T10:28:47;27.17;;;4.07;;
79452;SDS011;68899;52.116;5.404;2023-11-19T10:31:14;21.55;;;4.28;;
79452;SDS011;68899;52.116;5.404;2023-11-19T10:33:41;21.02;;;3.83;;
79452;SDS011;68899;52.116;5.404;2023-11-19T10:36:08;20.10;;;3.42;;
79452;SDS011;68899;52.116;5.404;2023-11-19T10:38:36;25.70;;;4.95;;
79452;SDS011;68899;52.116;5.404;2023-11-19T10:41:02;17.50;;;4.28;;
79452;SDS011;68899;52.116;5.404;2023-11-19T10:43:30;16.95;;;4.00;;
79452;SDS011;68899;52.116;5.404;2023-11-19T10:46:14;21.30;;;3.33;;
79452;SDS011;68899;52.116;5.404;2023-11-19T10:48:41;23.10;;;4.25;;
79452;SDS011;68899;52.116;5.404;2023-11-19T10:51:07;16.08;;;4.35;;
79452;SDS011;68899;52.116;5.404;2023-11-19T10:53:37;16.88;;;4.53;;
79452;SDS011;68899;52.116;5.404;2023-11-19T10:56:06;23.10;;;3.90;;
79452;SDS011;68899;52.116;5.404;2023-11-19T10:58:37;18.65;;;4.03;;
79452;SDS011;68899;52.116;5.404;2023-11-19T11:01:16;18.35;;;2.92;;
79452;SDS011;68899;52.116;5.404;2023-11-19T11:03:47;20.05;;;4.70;;
79452;SDS011;68899;52.116;5.404;2023-11-19T11:06:14;22.55;;;3.80;;
79452;SDS011;68899;52.116;5.404;2023-11-19T11:08:40;22.63;;;4.57;;
79452;SDS011;68899;52.116;5.404;2023-11-19T11:11:08;23.58;;;5.22;;
79452;SDS011;68899;52.116;5.404;2023-11-19T11:13:36;19.90;;;3.75;;
79452;SDS011;68899;52.116;5.404;2023-11-19T11:16:06;24.38;;;3.80;;
79452;SDS011;68899;52.116;5.404;2023-11-19T11:18:34;25.27;;;3.67;;
79452;SDS011;68899;52.116;5.404;2023-11-19T11:21:02;20.63;;;3.58;;
79452;SDS011;68899;52.116;5.404;2023-11-19T11:26:35;26.05;;;3.90;;
79452;SDS011;68899;52.116;5.404;2023-11-19T11:29:19;22.25;;;4.15;;
79452;SDS011;68899;52.116;5.404;2023-11-19T11:34:53;20.50;;;3.65;;
79452;SDS011;68899;52.116;5.404;2023-11-19T11:40:14;19.70;;;3.60;;
79452;SDS011;68899;52.116;5.404;2023-11-19T11:42:42;17.70;;;2.70;;
79452;SDS011;68899;52.116;5.404;2023-11-19T11:50:13;19.98;;;3.95;;
79452;SDS011;68899;52.116;5.404;2023-11-19T11:55:25;16.08;;;3.50;;
79452;SDS011;68899;52.116;5.404;2023-11-19T11:58:18;19.73;;;4.28;;
79452;SDS011;68899;52.116;5.404;2023-11-19T12:00:47;23.95;;;4.10;;
79452;SDS011;68899;52.116;5.404;2023-11-19T12:03:14;24.08;;;3.80;;
79452;SDS011;68899;52.116;5.404;2023-11-19T12:05:41;20.10;;;3.10;;
79452;SDS011;68899;52.116;5.404;2023-11-19T12:08:13;13.43;;;3.70;;
79452;SDS011;68899;52.116;5.404;2023-11-19T12:10:45;22.75;;;4.35;;
79452;SDS011;68899;52.116;5.404;2023-11-19T12:13:16;17.95;;;3.05;;
79452;SDS011;68899;52.116;5.404;2023-11-19T12:18:24;13.25;;;3.38;;
79452;SDS011;68899;52.116;5.404;2023-11-19T12:20:54;14.93;;;4.40;;
79452;SDS011;68899;52.116;5.404;2023-11-19T12:23:21;19.13;;;3.40;;
79452;SDS011;68899;52.116;5.404;2023-11-19T12:25:51;13.70;;;3.10;;
79452;SDS011;68899;52.116;5.404;2023-11-19T12:28:17;22.13;;;4.28;;
79452;SDS011;68899;52.116;5.404;2023-11-19T12:30:45;24.02;;;3.60;;
79452;SDS011;68899;52.116;5.404;2023-11-19T12:33:12;19.13;;;2.83;;
79452;SDS011;68899;52.116;5.404;2023-11-19T12:35:42;13.00;;;2.92;;
79452;SDS011;68899;52.116;5.404;2023-11-19T12:38:21;12.85;;;2.05;;
79452;SDS011;68899;52.116;5.404;2023-11-19T12:41:04;16.73;;;2.88;;
79452;SDS011;68899;52.116;5.404;2023-11-19T12:43:31;17.90;;;3.55;;
79452;SDS011;68899;52.116;5.404;2023-11-19T12:45:58;16.90;;;3.20;;
79452;SDS011;68899;52.116;5.404;2023-11-19T12:48:25;16.10;;;2.92;;
79452;SDS011;68899;52.116;5.404;2023-11-19T12:50:52;19.85;;;4.40;;
79452;SDS011;68899;52.116;5.404;2023-11-19T12:53:23;18.88;;;2.58;;
79452;SDS011;68899;52.116;5.404;2023-11-19T12:55:51;16.83;;;3.25;;
79452;SDS011;68899;52.116;5.404;2023-11-19T13:01:01;22.05;;;3.08;;
79452;SDS011;68899;52.116;5.404;2023-11-19T13:03:32;22.27;;;3.97;;
79452;SDS011;68899;52.116;5.404;2023-11-19T13:06:03;20.17;;;3.63;;
79452;SDS011;68899;52.116;5.404;2023-11-19T13:08:41;20.05;;;3.42;;
79452;SDS011;68899;52.116;5.404;2023-11-19T13:11:12;20.63;;;3.08;;
79452;SDS011;68899;52.116;5.404;2023-11-19T13:13:55;18.02;;;3.80;;
79452;SDS011;68899;52.116;5.404;2023-11-19T13:16:21;17.25;;;3.47;;
79452;SDS011;68899;52.116;5.404;2023-11-19T13:18:48;21.90;;;3.78;;
79452;SDS011;68899;52.116;5.404;2023-11-19T13:21:15;15.68;;;3.30;;
79452;SDS011;68899;52.116;5.404;2023-11-19T13:23:41;17.40;;;2.72;;
79452;SDS011;68899;52.116;5.404;2023-11-19T13:26:08;17.30;;;3.75;;
79452;SDS011;68899;52.116;5.404;2023-11-19T13:28:35;22.30;;;3.47;;
79452;SDS011;68899;52.116;5.404;2023-11-19T13:31:02;21.25;;;2.95;;
79452;SDS011;68899;52.116;5.404;2023-11-19T13:33:29;19.35;;;3.05;;
79452;SDS011;68899;52.116;5.404;2023-11-19T13:35:56;20.30;;;3.95;;
79452;SDS011;68899;52.116;5.404;2023-11-19T13:38:23;19.45;;;4.40;;
79452;SDS011;68899;52.116;5.404;2023-11-19T13:40:50;21.45;;;3.92;;
79452;SDS011;68899;52.116;5.404;2023-11-19T13:43:17;20.60;;;4.13;;
79452;SDS011;68899;52.116;5.404;2023-11-19T13:45:44;20.17;;;4.00;;
79452;SDS011;68899;52.116;5.404;2023-11-19T13:48:10;19.67;;;4.57;;
79452;SDS011;68899;52.116;5.404;2023-11-19T13:50:36;17.63;;;3.05;;
79452;SDS011;68899;52.116;5.404;2023-11-19T13:53:03;20.67;;;4.18;;
79452;SDS011;68899;52.116;5.404;2023-11-19T13:55:31;16.02;;;2.95;;
79452;SDS011;68899;52.116;5.404;2023-11-19T13:57:57;20.05;;;3.58;;
79452;SDS011;68899;52.116;5.404;2023-11-19T14:00:24;21.33;;;3.55;;
79452;SDS011;68899;52.116;5.404;2023-11-19T14:02:51;19.45;;;2.63;;
79452;SDS011;68899;52.116;5.404;2023-11-19T14:05:18;15.10;;;2.83;;
79452;SDS011;68899;52.116;5.404;2023-11-19T14:08:03;16.73;;;3.40;;
79452;SDS011;68899;52.116;5.404;2023-11-19T14:10:48;13.70;;;3.38;;
79452;SDS011;68899;52.116;5.404;2023-11-19T14:13:15;14.80;;;2.25;;
79452;SDS011;68899;52.116;5.404;2023-11-19T14:15:42;16.17;;;4.45;;
79452;SDS011;68899;52.116;5.404;2023-11-19T14:18:10;19.40;;;3.10;;
79452;SDS011;68899;52.116;5.404;2023-11-19T14:20:36;19.00;;;3.03;;
79452;SDS011;68899;52.116;5.404;2023-11-19T14:23:05;16.20;;;3.30;;
79452;SDS011;68899;52.116;5.404;2023-11-19T14:25:31;18.48;;;3.88;;
79452;SDS011;68899;52.116;5.404;2023-11-19T14:27:58;20.30;;;4.20;;
79452;SDS011;68899;52.116;5.404;2023-11-19T14:30:24;17.17;;;3.35;;
79452;SDS011;68899;52.116;5.404;2023-11-19T14:32:51;18.65;;;3.95;;
79452;SDS011;68899;52.116;5.404;2023-11-19T14:35:17;14.25;;;2.70;;
79452;SDS011;68899;52.116;5.404;2023-11-19T14:37:44;15.70;;;2.58;;
79452;SDS011;68899;52.116;5.404;2023-11-19T14:40:10;16.98;;;3.45;;
79452;SDS011;68899;52.116;5.404;2023-11-19T14:42:37;14.57;;;3.15;;
79452;SDS011;68899;52.116;5.404;2023-11-19T14:45:06;13.30;;;2.40;;
79452;SDS011;68899;52.116;5.404;2023-11-19T14:47:33;19.23;;;3.83;;
79452;SDS011;68899;52.116;5.404;2023-11-19T14:49:59;15.43;;;2.80;;
79452;SDS011;68899;52.116;5.404;2023-11-19T14:52:26;17.75;;;3.92;;
79452;SDS011;68899;52.116;5.404;2023-11-19T14:54:52;23.15;;;4.55;;
79452;SDS011;68899;52.116;5.404;2023-11-19T14:57:20;25.42;;;5.65;;
79452;SDS011;68899;52.116;5.404;2023-11-19T14:59:47;22.17;;;3.70;;
79452;SDS011;68899;52.116;5.404;2023-11-19T15:02:13;16.95;;;4.43;;